Time;durP1;ratioP1;P1;durP2;ratioP2;P2;SDS_P1;SDS_P2;PMS_P1;PMS_P2;Temp;Humidity;BMP_temperature;BMP_pressure;BME280_temperature;BME280_humidity;BME280_pressure;Samples;Min_cycle;Max_cycle;Signal;HPM_P1;HPM_P2
2023/04/13 00:02:17;;;;;;;;;;;5.40;99.90;;;;;;5086818;28;19924;-87
2023/04/13 00:04:42;;;;;;;;;;;5.10;99.90;;;;;;5090968;28;19994;-88
2023/04/13 00:07:13;;;;;;;;;;;5.10;99.90;;;;;;5093078;28;19928;-88
2023/04/13 00:09:42;;;;;;;;;;;5.30;99.90;;;;;;5089000;28;20014;-88
2023/04/13 00:12:11;;;;;;;;;;;5.20;99.90;;;;;;5100126;28;20390;-88
2023/04/13 00:14:42;;;;;;;;;;;3.60;99.90;;;;;;5083250;28;19924;-88
2023/04/13 00:17:10;;;;;;;;;;;3.70;99.90;;;;;;5062642;28;20326;-87
2023/04/13 00:19:40;;;;;;;;;;;5.20;99.90;;;;;;5093444;28;20022;-88
2023/04/13 00:22:08;;;;;;;;;;;5.50;99.90;;;;;;5093568;28;19978;-87
2023/04/13 00:24:36;;;;;;;;;;;5.00;99.90;;;;;;5086128;28;20011;-87
2023/04/13 00:27:09;;;;;;;;;;;5.40;99.90;;;;;;5092661;28;19924;-88
2023/04/13 00:29:37;;;;;;;;;;;6.40;99.90;;;;;;5104612;28;20028;-88
2023/04/13 00:32:03;;;;;;;;;;;5.40;99.90;;;;;;5076879;28;19924;-88
2023/04/13 00:34:29;;;;;;;;;;;5.40;99.90;;;;;;5104987;28;20260;-87
2023/04/13 00:37:00;;;;;;;;;;;5.50;99.90;;;;;;5092467;28;19924;-88
2023/04/13 00:39:29;;;;;;;;;;;5.60;99.90;;;;;;5093956;28;19928;-88
2023/04/13 00:42:02;;;;;;;;;;;6.10;99.90;;;;;;5088700;28;19930;-88
2023/04/13 00:44:29;;;;;;;;;;;5.60;99.90;;;;;;5100251;28;20256;-88
2023/04/13 00:46:57;;;;;;;;;;;6.10;99.90;;;;;;5081585;28;20197;-87
2023/04/13 00:49:26;;;;;;;;;;;6.00;99.90;;;;;;5081422;28;20334;-87
2023/04/13 00:51:51;;;;;;;;;;;5.80;99.90;;;;;;5063147;28;19930;-87
2023/04/13 00:54:17;;;;;;;;;;;5.70;99.90;;;;;;5079230;28;19924;-88
2023/04/13 00:56:45;;;;;;;;;;;5.60;99.90;;;;;;5101592;28;19974;-88
2023/04/13 00:59:11;;;;;;;;;;;5.70;99.90;;;;;;5065437;28;19959;-87
2023/04/13 01:01:54;;;;;;;;;;;;;;;;;;;;;
2023/04/13 01:04:24;;;;;;;;;;;5.30;99.90;;;;;;5095150;28;20379;-87
2023/04/13 01:07:08;;;;;;;;;;;3.70;99.90;;;;;;5103103;28;19924;-88
2023/04/13 01:09:39;;;;;;;;;;;6.40;99.90;;;;;;5100083;28;20275;-86
2023/04/13 01:12:10;;;;;;;;;;;3.50;99.90;;;;;;5096662;28;20018;-86
2023/04/13 01:14:43;;;;;;;;;;;6.00;99.90;;;;;;5110979;28;20372;-86
2023/04/13 01:17:20;;;;;;;;;;;5.70;99.90;;;;;;5117862;27;19989;-86
2023/04/13 01:19:51;;;;;;;;;;;5.60;99.90;;;;;;5104834;28;19924;-87
2023/04/13 01:22:21;;;;;;;;;;;5.70;99.90;;;;;;5139671;27;19924;-86
2023/04/13 01:24:46;;;;;;;;;;;6.00;99.90;;;;;;5098306;28;19924;-86
2023/04/13 01:27:15;;;;;;;;;;;5.70;99.90;;;;;;5081863;28;20336;-86
2023/04/13 01:29:44;;;;;;;;;;;5.60;99.90;;;;;;5102013;28;19931;-86
2023/04/13 01:32:10;;;;;;;;;;;5.60;99.90;;;;;;5092734;28;19924;-86
2023/04/13 01:34:36;;;;;;;;;;;5.50;99.90;;;;;;5100741;28;20296;-87
2023/04/13 01:37:04;;;;;;;;;;;5.60;99.90;;;;;;5085099;28;19923;-87
2023/04/13 01:39:33;;;;;;;;;;;5.50;99.90;;;;;;5083073;28;19931;-87
2023/04/13 01:41:59;;;;;;;;;;;5.50;99.90;;;;;;5096882;28;19927;-86
2023/04/13 01:44:27;;;;;;;;;;;5.50;99.90;;;;;;5140277;27;20311;-86
2023/04/13 01:46:57;;;;;;;;;;;5.50;99.90;;;;;;5083814;28;19924;-87
2023/04/13 01:49:23;;;;;;;;;;;5.40;99.90;;;;;;5099489;28;19924;-86
2023/04/13 01:51:50;;;;;;;;;;;5.40;99.90;;;;;;5102283;28;19994;-86
2023/04/13 01:54:19;;;;;;;;;;;5.40;99.90;;;;;;5099956;28;19931;-86
2023/04/13 01:56:47;;;;;;;;;;;5.40;99.90;;;;;;5082209;28;19930;-86
2023/04/13 01:59:15;;;;;;;;;;;5.40;99.90;;;;;;5104969;28;20377;-86
2023/04/13 02:01:41;;;;;;;;;;;5.40;99.90;;;;;;5092540;28;19931;-86
2023/04/13 02:04:07;;;;;;;;;;;5.40;99.90;;;;;;5097391;28;19931;-86
2023/04/13 02:06:35;;;;;;;;;;;5.60;99.90;;;;;;5080371;28;20322;-86
2023/04/13 02:09:05;;;;;;;;;;;5.40;99.90;;;;;;5087404;28;20371;-86
2023/04/13 02:11:31;;;;;;;;;;;5.40;99.90;;;;;;5068843;28;19986;-86
2023/04/13 02:13:57;;;;;;;;;;;5.90;99.90;;;;;;5055934;28;20314;-87
2023/04/13 02:16:24;;;;;;;;;;;5.40;99.90;;;;;;5091861;28;19999;-86
2023/04/13 02:18:49;;;;;;;;;;;5.40;99.90;;;;;;5078397;28;19947;-86
2023/04/13 02:21:15;;;;;;;;;;;5.40;99.90;;;;;;5098287;28;19924;-87
2023/04/13 02:23:41;;;;;;;;;;;5.40;99.90;;;;;;5070250;28;19924;-87
2023/04/13 02:26:07;;;;;;;;;;;5.40;99.90;;;;;;5127588;27;19959;-86
2023/04/13 02:28:33;;;;;;;;;;;5.30;99.90;;;;;;5100851;28;19924;-86
2023/04/13 02:30:59;;;;;;;;;;;5.40;99.90;;;;;;5100997;28;19928;-86
2023/04/13 02:33:29;;;;;;;;;;;5.70;99.90;;;;;;5083690;28;20280;-86
2023/04/13 02:35:54;;;;;;;;;;;5.40;99.90;;;;;;5079021;28;20403;-85
2023/04/13 02:38:22;;;;;;;;;;;5.40;99.90;;;;;;5131551;27;19925;-86
2023/04/13 02:40:52;;;;;;;;;;;5.40;99.90;;;;;;5107460;28;20295;-86
2023/04/13 02:43:18;;;;;;;;;;;5.40;99.90;;;;;;5103762;28;19963;-86
2023/04/13 02:45:43;;;;;;;;;;;5.40;99.90;;;;;;5096316;28;20445;-86
2023/04/13 02:48:09;;;;;;;;;;;5.40;99.90;;;;;;5136580;27;19928;-85
2023/04/13 02:50:35;;;;;;;;;;;5.40;99.90;;;;;;5094986;28;20414;-86
2023/04/13 02:53:00;;;;;;;;;;;5.40;99.90;;;;;;5097940;28;20002;-85
2023/04/13 02:55:26;;;;;;;;;;;5.50;99.90;;;;;;5104162;28;19938;-87
2023/04/13 02:57:52;;;;;;;;;;;5.60;99.90;;;;;;5093207;28;19931;-85
2023/04/13 03:00:18;;;;;;;;;;;5.40;99.90;;;;;;5089949;28;19982;-86
2023/04/13 03:02:44;;;;;;;;;;;5.40;99.90;;;;;;5104109;28;19923;-86
2023/04/13 03:05:09;;;;;;;;;;;5.40;99.90;;;;;;5097553;28;19942;-85
2023/04/13 03:07:35;;;;;;;;;;;5.50;99.90;;;;;;5097535;28;19932;-86
2023/04/13 03:10:04;;;;;;;;;;;5.50;99.90;;;;;;5075456;28;19974;-86
2023/04/13 03:12:30;;;;;;;;;;;5.50;99.90;;;;;;5107651;28;20380;-86
2023/04/13 03:14:56;;;;;;;;;;;5.50;99.90;;;;;;5083206;28;19924;-86
2023/04/13 03:17:21;;;;;;;;;;;5.50;99.90;;;;;;5094988;28;19973;-86
2023/04/13 03:19:48;;;;;;;;;;;6.30;99.90;;;;;;5092815;28;19998;-85
2023/04/13 03:22:14;;;;;;;;;;;5.50;99.90;;;;;;5100512;28;19990;-86
2023/04/13 03:24:40;;;;;;;;;;;5.60;99.90;;;;;;5103847;28;19927;-86
2023/04/13 03:27:06;;;;;;;;;;;5.50;99.90;;;;;;5096547;28;20015;-86
2023/04/13 03:29:32;;;;;;;;;;;5.50;99.90;;;;;;5082711;28;19924;-86
2023/04/13 03:31:58;;;;;;;;;;;5.70;99.90;;;;;;5108120;28;19943;-86
2023/04/13 03:34:23;;;;;;;;;;;6.10;99.90;;;;;;5137657;27;19928;-86
2023/04/13 03:36:49;;;;;;;;;;;5.80;99.90;;;;;;5099387;28;19981;-86
2023/04/13 03:39:15;;;;;;;;;;;5.50;99.90;;;;;;5095319;28;19931;-86
2023/04/13 03:41:40;;;;;;;;;;;6.90;99.90;;;;;;5066390;28;19928;-87
2023/04/13 03:44:06;;;;;;;;;;;5.60;99.90;;;;;;5105369;28;19924;-87
2023/04/13 03:46:34;;;;;;;;;;;5.60;99.90;;;;;;5092047;28;19929;-86
2023/04/13 03:48:59;;;;;;;;;;;5.60;99.90;;;;;;5101997;28;20295;-87
2023/04/13 03:51:26;;;;;;;;;;;6.50;99.90;;;;;;5077640;28;19924;-86
2023/04/13 03:53:52;;;;;;;;;;;5.80;99.90;;;;;;5078316;28;19970;-86
2023/04/13 03:56:17;;;;;;;;;;;5.60;99.90;;;;;;5128195;27;19932;-86
2023/04/13 03:58:43;;;;;;;;;;;5.60;99.90;;;;;;5093185;28;19971;-86
2023/04/13 04:01:09;;;;;;;;;;;5.70;99.90;;;;;;5076635;28;20003;-86
2023/04/13 04:03:36;;;;;;;;;;;5.60;99.90;;;;;;5080725;28;19924;-87
2023/04/13 04:06:02;;;;;;;;;;;5.60;99.90;;;;;;5092617;28;19993;-87
2023/04/13 04:08:27;;;;;;;;;;;5.70;99.90;;;;;;5127564;27;20317;-86
2023/04/13 04:10:53;;;;;;;;;;;5.70;99.90;;;;;;5118862;27;20364;-87
2023/04/13 04:13:18;;;;;;;;;;;5.70;99.90;;;;;;5076049;28;20368;-87
2023/04/13 04:15:44;;;;;;;;;;;5.70;99.90;;;;;;5093208;28;19967;-87
2023/04/13 04:18:10;;;;;;;;;;;5.70;99.90;;;;;;5093274;28;20344;-86
2023/04/13 04:20:35;;;;;;;;;;;5.70;99.90;;;;;;5093435;28;20063;-86
2023/04/13 04:23:03;;;;;;;;;;;5.70;99.90;;;;;;5091340;28;19960;-87
2023/04/13 04:25:29;;;;;;;;;;;5.70;99.90;;;;;;5077981;28;19924;-87
2023/04/13 04:27:56;;;;;;;;;;;5.70;99.90;;;;;;5077213;28;19993;-87
2023/04/13 04:30:23;;;;;;;;;;;5.70;99.90;;;;;;5079908;28;19928;-86
2023/04/13 04:32:51;;;;;;;;;;;5.70;99.90;;;;;;5125736;27;19932;-87
2023/04/13 04:35:19;;;;;;;;;;;5.60;99.90;;;;;;5088562;28;19924;-87
2023/04/13 04:37:48;;;;;;;;;;;5.60;99.90;;;;;;5076273;28;20015;-87
2023/04/13 04:40:14;;;;;;;;;;;5.50;99.90;;;;;;5092926;28;19931;-87
2023/04/13 04:42:40;;;;;;;;;;;5.50;99.90;;;;;;5126889;27;19931;-87
2023/04/13 04:45:07;;;;;;;;;;;5.80;99.90;;;;;;5109998;28;19924;-87
2023/04/13 04:47:40;;;;;;;;;;;5.40;99.90;;;;;;5090939;28;20390;-88
2023/04/13 04:50:07;;;;;;;;;;;6.00;99.90;;;;;;5099960;27;19932;-87
2023/04/13 04:52:33;;;;;;;;;;;5.30;99.90;;;;;;5075671;28;20050;-87
2023/04/13 04:54:58;;;;;;;;;;;5.20;99.90;;;;;;5089261;28;19928;-87
2023/04/13 04:57:24;;;;;;;;;;;5.20;99.90;;;;;;5082334;28;19924;-87
2023/04/13 04:59:50;;;;;;;;;;;5.10;99.90;;;;;;5075730;28;19959;-87
2023/04/13 05:02:16;;;;;;;;;;;5.10;99.90;;;;;;5075875;28;19924;-87
2023/04/13 05:04:41;;;;;;;;;;;5.10;99.90;;;;;;5084705;28;19931;-86
2023/04/13 05:07:08;;;;;;;;;;;5.20;99.90;;;;;;5092469;28;20371;-87
2023/04/13 05:09:33;;;;;;;;;;;5.20;99.90;;;;;;5082937;28;19931;-86
2023/04/13 05:11:59;;;;;;;;;;;6.00;99.90;;;;;;5098682;28;19928;-87
2023/04/13 05:14:25;;;;;;;;;;;5.20;99.90;;;;;;5095209;28;19931;-87
2023/04/13 05:16:50;;;;;;;;;;;5.30;99.90;;;;;;5083103;28;19924;-87
2023/04/13 05:19:16;;;;;;;;;;;5.30;99.90;;;;;;5081698;28;19928;-87
2023/04/13 05:21:41;;;;;;;;;;;5.40;99.90;;;;;;5092343;28;19925;-87
2023/04/13 05:24:07;;;;;;;;;;;5.40;99.90;;;;;;5132815;27;20288;-86
2023/04/13 05:26:33;;;;;;;;;;;5.40;99.90;;;;;;5127723;27;20038;-87
2023/04/13 05:29:01;;;;;;;;;;;5.40;99.90;;;;;;5076524;28;20291;-87
2023/04/13 05:31:30;;;;;;;;;;;3.10;99.90;;;;;;5082920;28;20097;-86
2023/04/13 05:33:55;;;;;;;;;;;5.60;99.90;;;;;;5085940;28;20414;-86
2023/04/13 05:36:21;;;;;;;;;;;5.60;99.90;;;;;;5099738;28;19928;-86
2023/04/13 05:38:46;;;;;;;;;;;5.60;99.90;;;;;;5101390;28;19938;-86
2023/04/13 05:41:12;;;;;;;;;;;5.60;99.90;;;;;;5081147;28;19930;-88
2023/04/13 05:43:43;;;;;;;;;;;5.60;99.90;;;;;;5076989;28;20319;-88
2023/04/13 05:46:11;;;;;;;;;;;8.00;99.90;;;;;;5080111;28;20348;-88
2023/04/13 05:48:40;;;;;;;;;;;5.50;99.90;;;;;;5082204;28;20367;-87
2023/04/13 05:51:19;;;;;;;;;;;;;;;;;;;;;
2023/04/13 05:53:48;;;;;;;;;;;5.60;99.90;;;;;;5092083;28;20022;-88
2023/04/13 05:56:13;;;;;;;;;;;5.80;99.90;;;;;;5082849;28;20007;-88
2023/04/13 05:58:39;;;;;;;;;;;5.70;99.90;;;;;;5111228;28;19973;-87
2023/04/13 06:01:07;;;;;;;;;;;5.80;99.90;;;;;;5098780;28;20027;-87
2023/04/13 06:03:33;;;;;;;;;;;5.80;99.90;;;;;;5102328;28;20322;-90
2023/04/13 06:06:03;;;;;;;;;;;6.00;99.90;;;;;;5127629;27;20025;-86
2023/04/13 06:08:31;;;;;;;;;;;6.10;99.90;;;;;;5095565;28;19924;-89
2023/04/13 06:10:57;;;;;;;;;;;6.40;99.90;;;;;;5094132;28;20573;-86
2023/04/13 06:13:25;;;;;;;;;;;4.40;99.90;;;;;;5070416;28;19938;-87
2023/04/13 06:15:59;;;;;;;;;;;6.30;99.90;;;;;;5069809;28;19927;-88
2023/04/13 06:18:27;;;;;;;;;;;6.40;99.90;;;;;;5082186;28;20019;-87
2023/04/13 06:20:56;;;;;;;;;;;6.40;99.90;;;;;;5076493;28;20364;-87
2023/04/13 06:23:24;;;;;;;;;;;6.40;99.90;;;;;;5088431;28;20324;-87
2023/04/13 06:25:50;;;;;;;;;;;6.40;99.90;;;;;;5104852;28;19958;-87
2023/04/13 06:28:16;;;;;;;;;;;6.40;99.90;;;;;;5071458;28;19937;-87
2023/04/13 06:30:44;;;;;;;;;;;6.60;99.90;;;;;;5091696;28;19928;-87
2023/04/13 06:33:10;;;;;;;;;;;6.40;99.90;;;;;;5076309;28;20383;-87
2023/04/13 06:35:36;;;;;;;;;;;6.50;99.90;;;;;;5081787;28;19931;-87
2023/04/13 06:38:04;;;;;;;;;;;6.60;99.90;;;;;;5100852;28;20016;-88
2023/04/13 06:40:31;;;;;;;;;;;6.40;99.90;;;;;;5068275;28;19928;-87
2023/04/13 06:42:59;;;;;;;;;;;6.30;99.90;;;;;;5124244;27;19932;-87
2023/04/13 06:45:25;;;;;;;;;;;6.40;99.90;;;;;;5091539;28;19924;-87
2023/04/13 06:47:53;;;;;;;;;;;6.60;99.90;;;;;;5099964;28;19928;-87
2023/04/13 06:50:19;;;;;;;;;;;5.20;99.90;;;;;;5128568;27;20441;-86
2023/04/13 06:52:46;;;;;;;;;;;6.60;99.90;;;;;;5073729;28;20007;-86
2023/04/13 06:55:12;;;;;;;;;;;6.20;99.90;;;;;;5098864;28;19967;-87
2023/04/13 06:57:37;;;;;;;;;;;6.20;99.90;;;;;;5131752;27;20012;-87
2023/04/13 07:00:07;;;;;;;;;;;6.30;99.90;;;;;;5095360;28;19939;-87
2023/04/13 07:02:32;;;;;;;;;;;6.30;99.90;;;;;;5074768;28;19987;-88
2023/04/13 07:05:00;;;;;;;;;;;6.90;99.90;;;;;;5081389;28;19971;-87
2023/04/13 07:07:26;;;;;;;;;;;6.30;99.90;;;;;;5092165;28;20018;-87
2023/04/13 07:09:57;;;;;;;;;;;8.00;99.90;;;;;;5070739;28;20432;-87
2023/04/13 07:12:26;;;;;;;;;;;6.80;99.90;;;;;;5071358;28;19981;-87
2023/04/13 07:14:51;;;;;;;;;;;6.60;99.90;;;;;;5097621;28;20018;-88
2023/04/13 07:17:20;;;;;;;;;;;6.60;99.90;;;;;;5088031;28;19992;-87
2023/04/13 07:19:46;;;;;;;;;;;6.80;99.90;;;;;;5084691;28;19924;-86
2023/04/13 07:22:13;;;;;;;;;;;6.90;99.90;;;;;;5101824;28;19940;-86
2023/04/13 07:24:44;;;;;;;;;;;6.50;99.90;;;;;;5092353;28;20309;-87
2023/04/13 07:27:10;;;;;;;;;;;6.50;99.90;;;;;;5102699;27;19939;-87
2023/04/13 07:29:38;;;;;;;;;;;6.60;99.90;;;;;;5083948;28;19924;-87
2023/04/13 07:32:06;;;;;;;;;;;6.60;99.90;;;;;;5096346;28;20236;-87
2023/04/13 07:34:32;;;;;;;;;;;6.60;99.90;;;;;;5070924;28;20023;-88
2023/04/13 07:36:57;;;;;;;;;;;6.60;99.90;;;;;;5100031;27;20085;-89
2023/04/13 07:39:27;;;;;;;;;;;6.80;99.90;;;;;;5115413;27;19923;-90
2023/04/13 07:41:52;;;;;;;;;;;4.80;99.90;;;;;;5095692;28;19924;-86
2023/04/13 07:44:20;;;;;;;;;;;7.30;99.90;;;;;;5072194;28;19951;-86
2023/04/13 07:46:46;;;;;;;;;;;7.60;99.90;;;;;;5073298;28;19934;-87
2023/04/13 07:49:12;;;;;;;;;;;7.90;99.90;;;;;;5085123;28;20011;-87
2023/04/13 07:51:37;;;;;;;;;;;8.20;99.90;;;;;;5081378;28;19928;-87
2023/04/13 07:54:05;;;;;;;;;;;8.40;99.90;;;;;;5079681;28;19979;-88
2023/04/13 07:56:35;;;;;;;;;;;8.40;99.90;;;;;;5095712;28;19963;-88
2023/04/13 07:59:10;;;;;;;;;;;8.60;99.90;;;;;;5110013;27;19946;-87
2023/04/13 08:01:38;;;;;;;;;;;7.90;99.90;;;;;;5099429;28;19924;-87
2023/04/13 08:04:04;;;;;;;;;;;8.40;99.90;;;;;;5097846;28;19924;-87
2023/04/13 08:06:37;;;;;;;;;;;8.70;99.90;;;;;;5080524;28;19924;-88
2023/04/13 08:09:05;;;;;;;;;;;8.60;99.90;;;;;;5077410;28;20668;-87
2023/04/13 08:11:33;;;;;;;;;;;6.40;99.90;;;;;;5072287;28;19924;-88
2023/04/13 08:14:00;;;;;;;;;;;8.50;99.90;;;;;;5084870;28;19928;-87
2023/04/13 08:16:25;;;;;;;;;;;8.40;99.90;;;;;;5099091;28;19949;-87
2023/04/13 08:18:56;;;;;;;;;;;8.10;99.90;;;;;;5077984;28;19931;-88
2023/04/13 08:21:25;;;;;;;;;;;8.10;99.90;;;;;;5091797;28;19923;-87
2023/04/13 08:23:58;;;;;;;;;;;7.90;99.90;;;;;;5090956;28;19971;-89
2023/04/13 08:26:25;;;;;;;;;;;8.10;99.90;;;;;;5074703;28;19930;-88
2023/04/13 08:28:53;;;;;;;;;;;7.80;99.90;;;;;;5078018;28;19931;-87
2023/04/13 08:31:19;;;;;;;;;;;7.60;99.90;;;;;;5093288;28;19928;-87
2023/04/13 08:33:47;;;;;;;;;;;7.60;99.90;;;;;;5095362;28;19947;-87
2023/04/13 08:36:13;;;;;;;;;;;7.70;99.90;;;;;;5085618;28;20394;-87
2023/04/13 08:38:40;;;;;;;;;;;8.00;99.90;;;;;;5104984;28;20068;-87
2023/04/13 08:41:08;;;;;;;;;;;8.30;99.90;;;;;;5090831;28;19923;-88
2023/04/13 08:43:36;;;;;;;;;;;8.30;99.90;;;;;;5091926;28;19978;-87
2023/04/13 08:46:03;;;;;;;;;;;8.20;99.90;;;;;;5088006;28;19924;-87
2023/04/13 08:48:30;;;;;;;;;;;8.40;99.90;;;;;;5097689;28;19924;-87
2023/04/13 08:50:58;;;;;;;;;;;8.40;99.90;;;;;;5092266;28;19924;-88
2023/04/13 08:53:29;;;;;;;;;;;9.70;99.90;;;;;;5082295;28;19923;-88
2023/04/13 08:55:56;;;;;;;;;;;8.60;99.90;;;;;;5096231;28;19924;-86
2023/04/13 08:58:23;;;;;;;;;;;8.70;99.90;;;;;;5072477;28;19931;-86
2023/04/13 09:00:49;;;;;;;;;;;8.90;99.90;;;;;;5077022;28;20374;-87
2023/04/13 09:03:19;;;;;;;;;;;9.00;99.90;;;;;;5126464;27;20019;-86
2023/04/13 09:05:47;;;;;;;;;;;9.00;99.90;;;;;;5116304;27;19928;-87
2023/04/13 09:08:13;;;;;;;;;;;8.90;99.90;;;;;;5092602;28;20335;-89
2023/04/13 09:10:39;;;;;;;;;;;8.80;99.90;;;;;;5127624;27;20360;-87
2023/04/13 09:13:05;;;;;;;;;;;8.60;99.90;;;;;;5074897;28;19973;-86
2023/04/13 09:15:31;;;;;;;;;;;8.50;99.90;;;;;;5122217;27;19930;-86
2023/04/13 09:18:06;;;;;;;;;;;8.50;99.90;;;;;;5134731;27;19928;-87
2023/04/13 09:20:31;;;;;;;;;;;8.40;99.90;;;;;;5121032;27;19932;-87
2023/04/13 09:22:57;;;;;;;;;;;8.40;99.90;;;;;;5131960;27;19924;-87
2023/04/13 09:25:23;;;;;;;;;;;8.50;99.90;;;;;;5077221;28;20267;-86
2023/04/13 09:27:52;;;;;;;;;;;8.50;99.90;;;;;;5100959;28;19928;-86
2023/04/13 09:30:21;;;;;;;;;;;8.70;99.90;;;;;;5121510;27;20012;-87
2023/04/13 09:32:48;;;;;;;;;;;8.90;99.90;;;;;;5094367;28;19947;-88
2023/04/13 09:35:13;;;;;;;;;;;9.00;99.90;;;;;;5097386;28;19988;-87
2023/04/13 09:37:40;;;;;;;;;;;9.20;99.90;;;;;;5093102;28;20002;-87
2023/04/13 09:40:07;;;;;;;;;;;9.20;99.90;;;;;;5087509;28;19989;-88
2023/04/13 09:42:32;;;;;;;;;;;9.10;99.90;;;;;;5068465;28;19924;-87
2023/04/13 09:44:58;;;;;;;;;;;8.80;99.90;;;;;;5095261;28;19935;-86
2023/04/13 09:47:25;;;;;;;;;;;8.50;99.90;;;;;;5060278;28;20272;-88
2023/04/13 09:49:51;;;;;;;;;;;7.90;99.90;;;;;;5076084;28;19931;-87
2023/04/13 09:52:23;;;;;;;;;;;7.70;99.90;;;;;;5084352;28;19925;-86
2023/04/13 09:54:49;;;;;;;;;;;7.60;99.90;;;;;;5079963;28;19971;-85
2023/04/13 09:57:31;;;;;;;;;;;7.50;99.90;;;;;;5125140;27;19962;-85
2023/04/13 09:59:59;;;;;;;;;;;7.40;99.90;;;;;;5090982;28;20272;-86
2023/04/13 10:02:25;;;;;;;;;;;7.10;99.90;;;;;;5094822;28;19994;-86
2023/04/13 10:04:51;;;;;;;;;;;7.10;99.90;;;;;;5129428;27;19927;-86
2023/04/13 10:07:17;;;;;;;;;;;6.90;99.90;;;;;;5095573;28;19946;-86
2023/04/13 10:09:45;;;;;;;;;;;6.90;99.90;;;;;;5075514;28;19924;-89
2023/04/13 10:12:12;;;;;;;;;;;6.90;99.90;;;;;;5090748;28;19928;-86
2023/04/13 10:14:39;;;;;;;;;;;6.90;99.90;;;;;;5092257;28;19928;-86
2023/04/13 10:17:08;;;;;;;;;;;7.00;99.90;;;;;;5093853;28;20384;-88
2023/04/13 10:19:40;;;;;;;;;;;5.70;99.90;;;;;;5089393;28;19978;-84
2023/04/13 10:22:06;;;;;;;;;;;7.10;99.90;;;;;;5090575;28;19931;-85
2023/04/13 10:24:31;;;;;;;;;;;7.20;99.90;;;;;;5128086;27;19928;-86
2023/04/13 10:27:00;;;;;;;;;;;7.40;99.90;;;;;;5090162;28;20041;-85
2023/04/13 10:29:26;;;;;;;;;;;7.70;99.90;;;;;;5108009;28;19924;-88
2023/04/13 10:31:53;;;;;;;;;;;7.90;99.90;;;;;;5100515;28;19935;-87
2023/04/13 10:34:26;;;;;;;;;;;8.10;99.90;;;;;;5075460;28;19993;-87
2023/04/13 10:36:55;;;;;;;;;;;8.10;99.90;;;;;;5089324;28;20428;-87
2023/04/13 10:39:24;;;;;;;;;;;8.30;99.90;;;;;;5087165;28;19931;-86
2023/04/13 10:42:04;;;;;;;;;;;8.30;99.90;;;;;;5095327;28;19924;-87
2023/04/13 10:44:42;;;;;;;;;;;8.30;99.90;;;;;;5084612;28;19973;-87
2023/04/13 10:47:08;;;;;;;;;;;8.40;99.90;;;;;;5102912;28;20582;-87
2023/04/13 10:49:35;;;;;;;;;;;8.50;99.90;;;;;;5101663;28;19924;-87
2023/04/13 10:52:00;;;;;;;;;;;8.70;99.90;;;;;;5098038;28;19949;-87
2023/04/13 10:54:28;;;;;;;;;;;9.00;99.90;;;;;;5091085;28;19924;-86
2023/04/13 10:56:55;;;;;;;;;;;9.20;99.90;;;;;;5103933;28;19924;-87
2023/04/13 10:59:21;;;;;;;;;;;9.40;99.90;;;;;;5095693;28;19981;-87
2023/04/13 11:01:47;;;;;;;;;;;9.60;99.90;;;;;;5100237;28;19928;-87
2023/04/13 11:04:14;;;;;;;;;;;9.80;99.90;;;;;;5103894;28;20007;-87
2023/04/13 11:06:40;;;;;;;;;;;9.90;99.90;;;;;;5099586;28;19967;-86
2023/04/13 11:09:05;;;;;;;;;;;9.80;99.90;;;;;;5078670;28;19959;-86
2023/04/13 11:11:32;;;;;;;;;;;9.80;99.90;;;;;;5076593;28;20007;-87
2023/04/13 11:13:57;;;;;;;;;;;9.40;99.90;;;;;;5093836;28;20412;-86
2023/04/13 11:16:23;;;;;;;;;;;9.10;99.90;;;;;;5081066;28;20380;-87
2023/04/13 11:18:58;;;;;;;;;;;9.10;99.90;;;;;;5140032;27;19928;-88
2023/04/13 11:21:24;;;;;;;;;;;8.70;99.90;;;;;;5095756;28;20234;-88
2023/04/13 11:23:50;;;;;;;;;;;8.40;99.90;;;;;;5091538;28;19924;-87
2023/04/13 11:26:16;;;;;;;;;;;8.50;99.90;;;;;;5099265;28;19924;-87
2023/04/13 11:28:45;;;;;;;;;;;8.30;99.90;;;;;;5104070;28;20379;-89
2023/04/13 11:31:10;;;;;;;;;;;8.20;99.90;;;;;;5102701;28;19970;-86
2023/04/13 11:33:36;;;;;;;;;;;8.20;99.90;;;;;;5091499;28;20368;-87
2023/04/13 11:36:02;;;;;;;;;;;8.40;99.90;;;;;;5099917;28;20372;-88
2023/04/13 11:38:28;;;;;;;;;;;8.40;99.90;;;;;;5099214;28;19975;-87
2023/04/13 11:41:05;;;;;;;;;;;8.60;99.90;;;;;;5095656;28;19966;-88
2023/04/13 11:43:32;;;;;;;;;;;8.90;99.90;;;;;;5091250;28;19924;-87
2023/04/13 11:45:58;;;;;;;;;;;9.20;99.90;;;;;;5104760;28;20379;-88
2023/04/13 11:48:23;;;;;;;;;;;9.20;99.90;;;;;;5093760;28;19924;-87
2023/04/13 11:50:49;;;;;;;;;;;9.40;99.90;;;;;;5088624;28;20379;-87
2023/04/13 11:53:16;;;;;;;;;;;9.50;99.90;;;;;;5097089;28;19947;-86
2023/04/13 11:55:41;;;;;;;;;;;9.50;99.90;;;;;;5098097;28;20006;-87
2023/04/13 11:58:14;;;;;;;;;;;9.60;99.90;;;;;;5085357;28;20394;-87
2023/04/13 12:00:40;;;;;;;;;;;9.90;99.90;;;;;;5107412;28;19939;-87
2023/04/13 12:03:14;;;;;;;;;;;9.90;99.90;;;;;;5102457;28;20299;-88
2023/04/13 12:05:41;;;;;;;;;;;10.00;99.90;;;;;;5076127;28;20406;-87
2023/04/13 12:08:07;;;;;;;;;;;10.10;99.90;;;;;;5131115;27;19935;-89
2023/04/13 12:10:36;;;;;;;;;;;10.10;99.90;;;;;;5094828;28;19931;-88
2023/04/13 12:13:05;;;;;;;;;;;10.10;99.90;;;;;;5093097;28;19931;-88
2023/04/13 12:15:31;;;;;;;;;;;10.20;99.90;;;;;;5096426;28;19931;-90
2023/04/13 12:17:58;;;;;;;;;;;10.30;99.90;;;;;;5100211;28;19924;-87
2023/04/13 12:20:24;;;;;;;;;;;10.30;99.90;;;;;;5104142;28;19993;-90
2023/04/13 12:22:50;;;;;;;;;;;10.30;99.90;;;;;;5086079;28;19928;-88
2023/04/13 12:25:20;;;;;;;;;;;10.40;99.90;;;;;;5079894;28;19939;-89
2023/04/13 12:27:50;;;;;;;;;;;10.40;99.90;;;;;;5095600;28;19995;-88
2023/04/13 12:30:16;;;;;;;;;;;10.30;99.90;;;;;;5083728;28;19960;-88
2023/04/13 12:32:42;;;;;;;;;;;10.10;99.90;;;;;;5059796;28;19975;-89
2023/04/13 12:35:08;;;;;;;;;;;10.10;99.90;;;;;;5075938;28;20001;-89
2023/04/13 12:37:44;;;;;;;;;;;10.10;99.90;;;;;;5086740;28;19956;-88
2023/04/13 12:40:14;;;;;;;;;;;9.90;99.90;;;;;;5076744;28;19973;-88
2023/04/13 12:42:46;;;;;;;;;;;7.80;99.90;;;;;;5074058;28;19928;-87
2023/04/13 12:45:15;;;;;;;;;;;9.90;99.90;;;;;;5094151;28;20014;-88
2023/04/13 12:47:41;;;;;;;;;;;9.80;99.90;;;;;;5112723;27;19967;-89
2023/04/13 12:50:10;;;;;;;;;;;9.80;99.90;;;;;;5093961;28;19924;-87
2023/04/13 12:52:39;;;;;;;;;;;11.00;99.90;;;;;;5081886;28;19967;-87
2023/04/13 12:55:06;;;;;;;;;;;9.70;99.90;;;;;;5078382;28;19932;-86
2023/04/13 12:57:31;;;;;;;;;;;9.70;99.90;;;;;;5107854;27;19968;-86
2023/04/13 13:00:17;;;;;;;;;;;9.20;99.90;;;;;;5078389;28;19978;-88
2023/04/13 13:02:43;;;;;;;;;;;9.50;99.90;;;;;;5071304;28;20019;-87
2023/04/13 13:05:09;;;;;;;;;;;9.30;99.90;;;;;;5064275;28;19963;-90
2023/04/13 13:07:37;;;;;;;;;;;9.40;99.90;;;;;;5065160;28;19928;-88
2023/04/13 13:10:02;;;;;;;;;;;9.30;99.90;;;;;;5070719;28;19974;-87
2023/04/13 13:12:33;;;;;;;;;;;9.80;99.90;;;;;;5120531;27;19975;-88
2023/04/13 13:15:00;;;;;;;;;;;9.40;99.90;;;;;;5073083;28;20403;-88
2023/04/13 13:17:28;;;;;;;;;;;9.50;99.90;;;;;;5090594;28;19928;-88
2023/04/13 13:19:57;;;;;;;;;;;7.30;99.90;;;;;;5050683;28;19924;-86
2023/04/13 13:22:30;;;;;;;;;;;9.90;99.90;;;;;;5087880;28;19931;-87
2023/04/13 13:24:58;;;;;;;;;;;9.40;99.90;;;;;;5066389;28;19928;-87
2023/04/13 13:27:24;;;;;;;;;;;7.60;99.90;;;;;;5089201;28;19963;-87
2023/04/13 13:30:02;;;;;;;;;;;9.30;99.90;;;;;;5074596;28;19924;-88
2023/04/13 13:32:28;;;;;;;;;;;9.50;99.90;;;;;;5076078;28;19936;-87
2023/04/13 13:34:55;;;;;;;;;;;9.90;99.90;;;;;;5077202;28;19924;-88
2023/04/13 13:37:20;;;;;;;;;;;9.20;99.90;;;;;;5093851;28;19931;-88
2023/04/13 13:39:49;;;;;;;;;;;9.30;99.90;;;;;;5084785;28;19924;-88
2023/04/13 13:42:19;;;;;;;;;;;9.30;99.90;;;;;;5075468;28;20257;-88
2023/04/13 13:44:47;;;;;;;;;;;9.60;99.90;;;;;;5130298;27;19927;-87
2023/04/13 13:47:13;;;;;;;;;;;9.70;99.90;;;;;;5121493;27;20352;-86
2023/04/13 13:49:39;;;;;;;;;;;9.30;99.90;;;;;;5080827;28;19938;-87
2023/04/13 13:52:04;;;;;;;;;;;9.30;99.90;;;;;;5092626;28;19924;-86
2023/04/13 13:54:30;;;;;;;;;;;9.40;99.90;;;;;;5095815;28;19989;-87
2023/04/13 13:56:56;;;;;;;;;;;9.30;99.90;;;;;;5077191;28;19963;-88
2023/04/13 13:59:22;;;;;;;;;;;9.40;99.90;;;;;;5105848;28;19946;-85
2023/04/13 14:01:47;;;;;;;;;;;9.40;99.90;;;;;;5074244;28;19925;-86
2023/04/13 14:04:13;;;;;;;;;;;9.60;99.90;;;;;;5101382;28;20046;-86
2023/04/13 14:06:38;;;;;;;;;;;9.80;99.90;;;;;;5092181;28;19924;-87
2023/04/13 14:09:04;;;;;;;;;;;9.90;99.90;;;;;;5131054;27;19924;-87
2023/04/13 14:11:31;;;;;;;;;;;10.10;99.90;;;;;;5056177;28;19924;-87
2023/04/13 14:13:59;;;;;;;;;;;10.20;99.90;;;;;;5075136;28;19973;-86
2023/04/13 14:16:25;;;;;;;;;;;10.20;99.90;;;;;;5077034;28;19932;-86
2023/04/13 14:18:50;;;;;;;;;;;10.20;99.90;;;;;;5093729;28;20382;-86
2023/04/13 14:21:20;;;;;;;;;;;10.20;99.90;;;;;;5086150;28;19924;-85
2023/04/13 14:23:46;;;;;;;;;;;10.30;99.90;;;;;;5073119;28;19974;-86
2023/04/13 14:26:12;;;;;;;;;;;10.30;99.90;;;;;;5091944;28;20451;-86
2023/04/13 14:28:38;;;;;;;;;;;10.30;99.90;;;;;;5080125;28;19969;-86
2023/04/13 14:31:04;;;;;;;;;;;10.40;99.90;;;;;;5067202;28;20285;-88
2023/04/13 14:33:29;;;;;;;;;;;10.40;99.90;;;;;;5092376;28;19962;-88